sensor_id;sensor_type;location;lat;lon;timestamp;P1;durP1;ratioP1;P2;durP2;ratioP2
14849;SDS011;7517;48.400;11.770;2023-04-03T00:00:55;1.77;;;1.60;;
14849;SDS011;7517;48.400;11.770;2023-04-03T00:03:23;1.60;;;1.50;;
14849;SDS011;7517;48.400;11.770;2023-04-03T00:05:51;1.60;;;1.50;;
14849;SDS011;7517;48.400;11.770;2023-04-03T00:08:20;1.60;;;1.40;;
14849;SDS011;7517;48.400;11.770;2023-04-03T00:10:47;1.43;;;1.33;;
14849;SDS011;7517;48.400;11.770;2023-04-03T00:13:15;1.40;;;1.30;;
14849;SDS011;7517;48.400;11.770;2023-04-03T00:15:43;1.60;;;1.47;;
14849;SDS011;7517;48.400;11.770;2023-04-03T00:18:11;2.00;;;1.40;;
14849;SDS011;7517;48.400;11.770;2023-04-03T00:20:38;1.70;;;1.60;;
14849;SDS011;7517;48.400;11.770;2023-04-03T00:23:06;1.83;;;1.50;;
14849;SDS011;7517;48.400;11.770;2023-04-03T00:25:35;1.43;;;1.33;;
14849;SDS011;7517;48.400;11.770;2023-04-03T00:28:03;2.10;;;1.53;;
14849;SDS011;7517;48.400;11.770;2023-04-03T00:30:31;1.77;;;1.20;;
14849;SDS011;7517;48.400;11.770;2023-04-03T00:32:59;2.03;;;1.70;;
14849;SDS011;7517;48.400;11.770;2023-04-03T00:35:27;1.90;;;1.60;;
14849;SDS011;7517;48.400;11.770;2023-04-03T00:37:55;1.40;;;1.30;;
14849;SDS011;7517;48.400;11.770;2023-04-03T00:40:23;1.37;;;1.27;;
14849;SDS011;7517;48.400;11.770;2023-04-03T00:42:55;1.70;;;1.60;;
14849;SDS011;7517;48.400;11.770;2023-04-03T00:45:28;3.00;;;1.37;;
14849;SDS011;7517;48.400;11.770;2023-04-03T00:48:01;1.27;;;1.00;;
14849;SDS011;7517;48.400;11.770;2023-04-03T00:50:34;1.27;;;1.13;;
14849;SDS011;7517;48.400;11.770;2023-04-03T00:53:06;1.13;;;1.10;;
14849;SDS011;7517;48.400;11.770;2023-04-03T00:55:38;1.40;;;1.30;;
14849;SDS011;7517;48.400;11.770;2023-04-03T00:58:09;1.20;;;1.10;;
14849;SDS011;7517;48.400;11.770;2023-04-03T01:00:41;1.20;;;1.13;;
14849;SDS011;7517;48.400;11.770;2023-04-03T01:03:14;1.27;;;1.10;;
14849;SDS011;7517;48.400;11.770;2023-04-03T01:05:41;1.03;;;0.93;;
14849;SDS011;7517;48.400;11.770;2023-04-03T01:08:08;1.33;;;1.23;;
14849;SDS011;7517;48.400;11.770;2023-04-03T01:10:36;1.20;;;1.10;;
14849;SDS011;7517;48.400;11.770;2023-04-03T01:13:14;1.53;;;1.43;;
14849;SDS011;7517;48.400;11.770;2023-04-03T01:15:46;1.20;;;1.10;;
14849;SDS011;7517;48.400;11.770;2023-04-03T01:18:14;0.90;;;0.90;;
14849;SDS011;7517;48.400;11.770;2023-04-03T01:20:51;1.30;;;1.20;;
14849;SDS011;7517;48.400;11.770;2023-04-03T01:24:10;1.73;;;1.30;;
14849;SDS011;7517;48.400;11.770;2023-04-03T01:26:58;1.27;;;1.17;;
14849;SDS011;7517;48.400;11.770;2023-04-03T01:29:30;0.97;;;0.93;;
14849;SDS011;7517;48.400;11.770;2023-04-03T01:31:59;1.20;;;1.10;;
14849;SDS011;7517;48.400;11.770;2023-04-03T01:34:29;1.20;;;1.10;;
14849;SDS011;7517;48.400;11.770;2023-04-03T01:36:57;0.80;;;0.80;;
14849;SDS011;7517;48.400;11.770;2023-04-03T01:39:24;0.93;;;0.93;;
14849;SDS011;7517;48.400;11.770;2023-04-03T01:41:51;1.27;;;1.20;;
14849;SDS011;7517;48.400;11.770;2023-04-03T01:44:19;1.10;;;1.10;;
14849;SDS011;7517;48.400;11.770;2023-04-03T01:46:46;1.60;;;1.33;;
14849;SDS011;7517;48.400;11.770;2023-04-03T01:49:15;2.07;;;1.50;;
14849;SDS011;7517;48.400;11.770;2023-04-03T01:51:43;1.27;;;1.17;;
14849;SDS011;7517;48.400;11.770;2023-04-03T01:54:10;1.50;;;1.20;;
14849;SDS011;7517;48.400;11.770;2023-04-03T01:56:37;1.80;;;1.30;;
14849;SDS011;7517;48.400;11.770;2023-04-03T01:59:04;1.50;;;1.40;;
14849;SDS011;7517;48.400;11.770;2023-04-03T02:01:31;1.50;;;1.40;;
14849;SDS011;7517;48.400;11.770;2023-04-03T02:03:59;0.97;;;0.97;;
14849;SDS011;7517;48.400;11.770;2023-04-03T02:06:27;1.40;;;1.27;;
14849;SDS011;7517;48.400;11.770;2023-04-03T02:08:55;1.10;;;1.00;;
14849;SDS011;7517;48.400;11.770;2023-04-03T02:11:22;1.77;;;1.40;;
14849;SDS011;7517;48.400;11.770;2023-04-03T02:13:49;1.20;;;1.10;;
14849;SDS011;7517;48.400;11.770;2023-04-03T02:16:17;2.27;;;1.20;;
14849;SDS011;7517;48.400;11.770;2023-04-03T02:18:44;1.00;;;1.00;;
14849;SDS011;7517;48.400;11.770;2023-04-03T02:21:11;1.20;;;1.10;;
14849;SDS011;7517;48.400;11.770;2023-04-03T02:23:40;2.20;;;1.17;;
14849;SDS011;7517;48.400;11.770;2023-04-03T02:26:08;1.37;;;1.27;;
14849;SDS011;7517;48.400;11.770;2023-04-03T02:28:37;1.00;;;1.00;;
14849;SDS011;7517;48.400;11.770;2023-04-03T02:31:06;1.60;;;1.30;;
14849;SDS011;7517;48.400;11.770;2023-04-03T02:33:34;1.10;;;1.00;;
14849;SDS011;7517;48.400;11.770;2023-04-03T02:36:04;1.47;;;1.30;;
14849;SDS011;7517;48.400;11.770;2023-04-03T02:38:33;1.20;;;1.10;;
14849;SDS011;7517;48.400;11.770;2023-04-03T02:41:03;1.20;;;1.20;;
14849;SDS011;7517;48.400;11.770;2023-04-03T02:43:32;1.13;;;1.03;;
14849;SDS011;7517;48.400;11.770;2023-04-03T02:46:00;0.97;;;0.87;;
14849;SDS011;7517;48.400;11.770;2023-04-03T02:48:27;1.73;;;1.40;;
14849;SDS011;7517;48.400;11.770;2023-04-03T02:50:54;1.37;;;1.27;;
14849;SDS011;7517;48.400;11.770;2023-04-03T02:53:22;1.40;;;1.30;;
14849;SDS011;7517;48.400;11.770;2023-04-03T02:55:50;1.33;;;1.20;;
14849;SDS011;7517;48.400;11.770;2023-04-03T02:58:19;1.40;;;1.30;;
14849;SDS011;7517;48.400;11.770;2023-04-03T03:00:46;1.40;;;1.30;;
14849;SDS011;7517;48.400;11.770;2023-04-03T03:03:13;1.20;;;1.10;;
14849;SDS011;7517;48.400;11.770;2023-04-03T03:05:40;1.20;;;1.10;;
14849;SDS011;7517;48.400;11.770;2023-04-03T03:08:08;1.00;;;1.00;;
14849;SDS011;7517;48.400;11.770;2023-04-03T03:10:35;1.40;;;1.30;;
14849;SDS011;7517;48.400;11.770;2023-04-03T03:13:02;1.40;;;1.30;;
14849;SDS011;7517;48.400;11.770;2023-04-03T03:15:31;1.50;;;1.40;;
14849;SDS011;7517;48.400;11.770;2023-04-03T03:17:58;1.40;;;1.30;;
14849;SDS011;7517;48.400;11.770;2023-04-03T03:20:26;1.30;;;1.20;;
14849;SDS011;7517;48.400;11.770;2023-04-03T03:22:53;1.77;;;1.40;;
14849;SDS011;7517;48.400;11.770;2023-04-03T03:25:20;2.03;;;1.50;;
14849;SDS011;7517;48.400;11.770;2023-04-03T03:27:48;1.73;;;1.47;;
14849;SDS011;7517;48.400;11.770;2023-04-03T03:30:15;1.57;;;1.30;;
14849;SDS011;7517;48.400;11.770;2023-04-03T03:32:44;1.30;;;1.20;;
14849;SDS011;7517;48.400;11.770;2023-04-03T03:35:11;1.70;;;1.60;;
14849;SDS011;7517;48.400;11.770;2023-04-03T03:37:38;1.57;;;1.33;;
14849;SDS011;7517;48.400;11.770;2023-04-03T03:40:06;1.40;;;1.30;;
14849;SDS011;7517;48.400;11.770;2023-04-03T03:42:37;1.70;;;1.57;;
14849;SDS011;7517;48.400;11.770;2023-04-03T03:45:05;1.57;;;1.47;;
14849;SDS011;7517;48.400;11.770;2023-04-03T03:47:34;1.50;;;1.40;;
14849;SDS011;7517;48.400;11.770;2023-04-03T03:50:11;1.83;;;1.47;;
14849;SDS011;7517;48.400;11.770;2023-04-03T03:52:39;1.50;;;1.40;;
14849;SDS011;7517;48.400;11.770;2023-04-03T03:55:07;1.63;;;1.53;;
14849;SDS011;7517;48.400;11.770;2023-04-03T03:57:34;1.60;;;1.50;;
14849;SDS011;7517;48.400;11.770;2023-04-03T04:00:01;1.53;;;1.43;;
14849;SDS011;7517;48.400;11.770;2023-04-03T04:02:32;1.70;;;1.60;;
14849;SDS011;7517;48.400;11.770;2023-04-03T04:04:59;2.03;;;1.60;;
14849;SDS011;7517;48.400;11.770;2023-04-03T04:07:28;1.57;;;1.47;;
14849;SDS011;7517;48.400;11.770;2023-04-03T04:09:56;1.50;;;1.40;;
14849;SDS011;7517;48.400;11.770;2023-04-03T04:12:23;1.57;;;1.43;;
14849;SDS011;7517;48.400;11.770;2023-04-03T04:14:50;1.50;;;1.40;;
14849;SDS011;7517;48.400;11.770;2023-04-03T04:17:17;1.80;;;1.70;;
14849;SDS011;7517;48.400;11.770;2023-04-03T04:19:46;1.50;;;1.40;;
14849;SDS011;7517;48.400;11.770;2023-04-03T04:22:13;1.73;;;1.37;;
14849;SDS011;7517;48.400;11.770;2023-04-03T04:24:42;2.60;;;1.80;;
14849;SDS011;7517;48.400;11.770;2023-04-03T04:27:09;1.80;;;1.70;;
14849;SDS011;7517;48.400;11.770;2023-04-03T04:29:37;1.80;;;1.67;;
14849;SDS011;7517;48.400;11.770;2023-04-03T04:32:04;1.60;;;1.50;;
14849;SDS011;7517;48.400;11.770;2023-04-03T04:34:32;1.40;;;1.30;;
14849;SDS011;7517;48.400;11.770;2023-04-03T04:36:59;1.77;;;1.67;;
14849;SDS011;7517;48.400;11.770;2023-04-03T04:39:26;1.87;;;1.77;;
14849;SDS011;7517;48.400;11.770;2023-04-03T04:41:55;2.20;;;1.53;;
14849;SDS011;7517;48.400;11.770;2023-04-03T04:44:22;2.47;;;1.70;;
14849;SDS011;7517;48.400;11.770;2023-04-03T04:46:49;1.60;;;1.40;;
14849;SDS011;7517;48.400;11.770;2023-04-03T04:49:16;2.10;;;1.90;;
14849;SDS011;7517;48.400;11.770;2023-04-03T04:51:44;2.17;;;1.80;;
14849;SDS011;7517;48.400;11.770;2023-04-03T04:54:11;2.00;;;1.73;;
14849;SDS011;7517;48.400;11.770;2023-04-03T04:56:38;1.77;;;1.67;;
14849;SDS011;7517;48.400;11.770;2023-04-03T04:59:07;2.17;;;1.77;;
14849;SDS011;7517;48.400;11.770;2023-04-03T05:01:35;1.83;;;1.73;;
14849;SDS011;7517;48.400;11.770;2023-04-03T05:04:02;1.77;;;1.50;;
14849;SDS011;7517;48.400;11.770;2023-04-03T05:06:29;1.40;;;1.30;;
14849;SDS011;7517;48.400;11.770;2023-04-03T05:08:57;3.37;;;1.80;;
14849;SDS011;7517;48.400;11.770;2023-04-03T05:11:25;2.90;;;1.87;;
14849;SDS011;7517;48.400;11.770;2023-04-03T05:13:53;1.90;;;1.70;;
14849;SDS011;7517;48.400;11.770;2023-04-03T05:16:22;1.70;;;1.60;;
14849;SDS011;7517;48.400;11.770;2023-04-03T05:18:50;3.67;;;1.67;;
14849;SDS011;7517;48.400;11.770;2023-04-03T05:21:17;1.90;;;1.80;;
14849;SDS011;7517;48.400;11.770;2023-04-03T05:23:46;1.73;;;1.63;;
14849;SDS011;7517;48.400;11.770;2023-04-03T05:26:14;3.63;;;1.90;;
14849;SDS011;7517;48.400;11.770;2023-04-03T05:28:41;2.20;;;2.00;;
14849;SDS011;7517;48.400;11.770;2023-04-03T05:31:08;2.23;;;1.80;;
14849;SDS011;7517;48.400;11.770;2023-04-03T05:33:37;1.97;;;1.87;;
14849;SDS011;7517;48.400;11.770;2023-04-03T05:36:05;1.80;;;1.60;;
14849;SDS011;7517;48.400;11.770;2023-04-03T05:38:33;2.10;;;2.00;;
14849;SDS011;7517;48.400;11.770;2023-04-03T05:41:02;1.93;;;1.50;;
14849;SDS011;7517;48.400;11.770;2023-04-03T05:43:30;4.00;;;2.20;;
14849;SDS011;7517;48.400;11.770;2023-04-03T05:45:58;2.10;;;1.90;;
14849;SDS011;7517;48.400;11.770;2023-04-03T05:48:26;2.20;;;1.90;;
14849;SDS011;7517;48.400;11.770;2023-04-03T05:50:55;2.30;;;2.10;;
14849;SDS011;7517;48.400;11.770;2023-04-03T05:53:23;3.27;;;2.03;;
14849;SDS011;7517;48.400;11.770;2023-04-03T05:55:56;2.47;;;2.27;;
14849;SDS011;7517;48.400;11.770;2023-04-03T05:58:24;2.30;;;2.17;;
14849;SDS011;7517;48.400;11.770;2023-04-03T06:00:51;2.30;;;2.10;;
14849;SDS011;7517;48.400;11.770;2023-04-03T06:03:19;2.57;;;2.37;;
14849;SDS011;7517;48.400;11.770;2023-04-03T06:05:47;2.43;;;2.23;;
14849;SDS011;7517;48.400;11.770;2023-04-03T06:08:16;2.63;;;2.00;;
14849;SDS011;7517;48.400;11.770;2023-04-03T06:10:44;2.37;;;2.10;;
14849;SDS011;7517;48.400;11.770;2023-04-03T06:13:12;2.43;;;2.23;;
14849;SDS011;7517;48.400;11.770;2023-04-03T06:15:41;2.00;;;1.90;;
14849;SDS011;7517;48.400;11.770;2023-04-03T06:18:11;4.03;;;2.80;;
14849;SDS011;7517;48.400;11.770;2023-04-03T06:20:40;2.07;;;1.87;;
14849;SDS011;7517;48.400;11.770;2023-04-03T06:23:09;3.07;;;2.00;;
14849;SDS011;7517;48.400;11.770;2023-04-03T06:25:39;2.73;;;2.10;;
14849;SDS011;7517;48.400;11.770;2023-04-03T06:28:07;2.23;;;1.97;;
14849;SDS011;7517;48.400;11.770;2023-04-03T06:30:36;2.97;;;1.90;;
14849;SDS011;7517;48.400;11.770;2023-04-03T06:33:05;1.97;;;1.87;;
14849;SDS011;7517;48.400;11.770;2023-04-03T06:35:33;3.07;;;2.50;;
14849;SDS011;7517;48.400;11.770;2023-04-03T06:38:01;2.13;;;2.00;;
14849;SDS011;7517;48.400;11.770;2023-04-03T06:40:34;2.23;;;2.03;;
14849;SDS011;7517;48.400;11.770;2023-04-03T06:43:03;2.27;;;2.07;;
14849;SDS011;7517;48.400;11.770;2023-04-03T06:45:31;2.23;;;2.03;;
14849;SDS011;7517;48.400;11.770;2023-04-03T06:47:58;2.30;;;2.03;;
14849;SDS011;7517;48.400;11.770;2023-04-03T06:50:26;2.77;;;2.13;;
14849;SDS011;7517;48.400;11.770;2023-04-03T06:52:53;2.67;;;2.27;;
14849;SDS011;7517;48.400;11.770;2023-04-03T06:55:21;2.17;;;1.97;;
14849;SDS011;7517;48.400;11.770;2023-04-03T06:57:49;2.50;;;2.30;;
14849;SDS011;7517;48.400;11.770;2023-04-03T07:00:19;2.23;;;1.93;;
14849;SDS011;7517;48.400;11.770;2023-04-03T07:02:47;2.17;;;2.00;;
14849;SDS011;7517;48.400;11.770;2023-04-03T07:05:14;2.40;;;2.10;;
14849;SDS011;7517;48.400;11.770;2023-04-03T07:07:44;2.43;;;2.23;;
14849;SDS011;7517;48.400;11.770;2023-04-03T07:10:12;2.37;;;1.73;;
14849;SDS011;7517;48.400;11.770;2023-04-03T07:12:39;3.53;;;2.20;;
14849;SDS011;7517;48.400;11.770;2023-04-03T07:15:07;2.30;;;1.87;;
14849;SDS011;7517;48.400;11.770;2023-04-03T07:17:39;2.03;;;1.80;;
14849;SDS011;7517;48.400;11.770;2023-04-03T07:20:07;2.00;;;1.90;;
14849;SDS011;7517;48.400;11.770;2023-04-03T07:22:35;2.50;;;2.30;;
14849;SDS011;7517;48.400;11.770;2023-04-03T07:25:04;1.67;;;1.57;;
14849;SDS011;7517;48.400;11.770;2023-04-03T07:27:33;2.10;;;1.90;;
14849;SDS011;7517;48.400;11.770;2023-04-03T07:30:00;1.97;;;1.80;;
14849;SDS011;7517;48.400;11.770;2023-04-03T07:32:28;1.90;;;1.80;;
14849;SDS011;7517;48.400;11.770;2023-04-03T07:34:57;3.67;;;1.97;;
14849;SDS011;7517;48.400;11.770;2023-04-03T07:37:25;2.57;;;2.20;;
14849;SDS011;7517;48.400;11.770;2023-04-03T07:39:52;2.30;;;2.10;;
14849;SDS011;7517;48.400;11.770;2023-04-03T07:42:22;2.50;;;1.90;;
14849;SDS011;7517;48.400;11.770;2023-04-03T07:44:49;2.33;;;2.13;;
14849;SDS011;7517;48.400;11.770;2023-04-03T07:47:17;1.77;;;1.67;;
14849;SDS011;7517;48.400;11.770;2023-04-03T07:49:45;2.00;;;1.80;;
14849;SDS011;7517;48.400;11.770;2023-04-03T07:52:15;1.87;;;1.73;;
14849;SDS011;7517;48.400;11.770;2023-04-03T07:54:42;2.00;;;1.80;;
14849;SDS011;7517;48.400;11.770;2023-04-03T07:57:09;2.30;;;2.10;;
14849;SDS011;7517;48.400;11.770;2023-04-03T07:59:37;2.13;;;2.03;;
14849;SDS011;7517;48.400;11.770;2023-04-03T08:02:04;2.60;;;1.90;;
14849;SDS011;7517;48.400;11.770;2023-04-03T08:04:32;2.60;;;2.10;;
14849;SDS011;7517;48.400;11.770;2023-04-03T08:07:00;2.43;;;1.80;;
14849;SDS011;7517;48.400;11.770;2023-04-03T08:09:29;2.77;;;1.87;;
14849;SDS011;7517;48.400;11.770;2023-04-03T08:11:56;2.17;;;1.87;;
14849;SDS011;7517;48.400;11.770;2023-04-03T08:14:24;1.90;;;1.80;;
14849;SDS011;7517;48.400;11.770;2023-04-03T08:16:51;1.90;;;1.80;;
14849;SDS011;7517;48.400;11.770;2023-04-03T08:19:19;2.17;;;1.97;;
14849;SDS011;7517;48.400;11.770;2023-04-03T08:21:46;2.10;;;1.90;;
14849;SDS011;7517;48.400;11.770;2023-04-03T08:24:14;2.00;;;1.90;;
14849;SDS011;7517;48.400;11.770;2023-04-03T08:26:43;4.13;;;2.33;;
14849;SDS011;7517;48.400;11.770;2023-04-03T08:29:10;2.27;;;2.10;;
14849;SDS011;7517;48.400;11.770;2023-04-03T08:31:38;2.10;;;1.90;;
14849;SDS011;7517;48.400;11.770;2023-04-03T08:34:06;2.00;;;1.80;;
14849;SDS011;7517;48.400;11.770;2023-04-03T08:36:33;2.33;;;1.90;;
14849;SDS011;7517;48.400;11.770;2023-04-03T08:39:01;2.43;;;2.10;;
14849;SDS011;7517;48.400;11.770;2023-04-03T08:41:32;1.87;;;1.77;;
14849;SDS011;7517;48.400;11.770;2023-04-03T08:44:10;2.17;;;1.97;;
14849;SDS011;7517;48.400;11.770;2023-04-03T08:47:04;3.40;;;2.00;;
14849;SDS011;7517;48.400;11.770;2023-04-03T08:49:47;2.33;;;1.80;;
14849;SDS011;7517;48.400;11.770;2023-04-03T08:52:20;3.57;;;1.70;;
14849;SDS011;7517;48.400;11.770;2023-04-03T08:54:55;1.50;;;1.40;;
14849;SDS011;7517;48.400;11.770;2023-04-03T08:57:27;1.73;;;1.63;;
14849;SDS011;7517;48.400;11.770;2023-04-03T09:00:03;2.03;;;1.40;;
14849;SDS011;7517;48.400;11.770;2023-04-03T09:02:42;2.40;;;1.50;;
14849;SDS011;7517;48.400;11.770;2023-04-03T09:05:14;2.07;;;1.60;;
14849;SDS011;7517;48.400;11.770;2023-04-03T09:07:45;3.30;;;1.50;;
14849;SDS011;7517;48.400;11.770;2023-04-03T09:10:24;1.50;;;1.40;;
14849;SDS011;7517;48.400;11.770;2023-04-03T09:12:58;1.57;;;1.30;;
14849;SDS011;7517;48.400;11.770;2023-04-03T09:15:34;1.50;;;1.40;;
14849;SDS011;7517;48.400;11.770;2023-04-03T09:18:03;1.50;;;1.40;;
14849;SDS011;7517;48.400;11.770;2023-04-03T09:20:41;1.50;;;1.40;;
14849;SDS011;7517;48.400;11.770;2023-04-03T09:23:22;1.83;;;1.20;;
14849;SDS011;7517;48.400;11.770;2023-04-03T09:25:58;1.83;;;1.37;;
14849;SDS011;7517;48.400;11.770;2023-04-03T09:28:33;1.70;;;1.20;;
14849;SDS011;7517;48.400;11.770;2023-04-03T09:31:13;1.83;;;1.40;;
14849;SDS011;7517;48.400;11.770;2023-04-03T09:33:49;1.43;;;1.00;;
14849;SDS011;7517;48.400;11.770;2023-04-03T09:36:42;1.53;;;1.00;;
14849;SDS011;7517;48.400;11.770;2023-04-03T09:39:15;1.30;;;0.90;;
14849;SDS011;7517;48.400;11.770;2023-04-03T09:41:58;1.47;;;1.23;;
14849;SDS011;7517;48.400;11.770;2023-04-03T09:44:30;0.90;;;0.90;;
14849;SDS011;7517;48.400;11.770;2023-04-03T09:47:16;0.83;;;0.83;;
14849;SDS011;7517;48.400;11.770;2023-04-03T09:49:50;1.07;;;0.90;;
14849;SDS011;7517;48.400;11.770;2023-04-03T09:52:19;1.50;;;1.03;;
14849;SDS011;7517;48.400;11.770;2023-04-03T09:54:53;1.63;;;1.20;;
14849;SDS011;7517;48.400;11.770;2023-04-03T09:57:34;1.10;;;1.00;;
14849;SDS011;7517;48.400;11.770;2023-04-03T10:00:04;3.30;;;1.77;;
14849;SDS011;7517;48.400;11.770;2023-04-03T10:02:51;2.10;;;1.10;;
14849;SDS011;7517;48.400;11.770;2023-04-03T10:05:28;2.53;;;1.03;;
14849;SDS011;7517;48.400;11.770;2023-04-03T10:11:05;1.83;;;1.10;;
14849;SDS011;7517;48.400;11.770;2023-04-03T10:13:49;0.90;;;0.90;;
14849;SDS011;7517;48.400;11.770;2023-04-03T10:16:23;0.97;;;0.97;;
14849;SDS011;7517;48.400;11.770;2023-04-03T10:19:00;1.10;;;0.90;;
14849;SDS011;7517;48.400;11.770;2023-04-03T10:21:45;0.80;;;0.80;;
14849;SDS011;7517;48.400;11.770;2023-04-03T10:24:21;3.30;;;1.10;;
14849;SDS011;7517;48.400;11.770;2023-04-03T10:26:58;0.77;;;0.77;;
14849;SDS011;7517;48.400;11.770;2023-04-03T10:29:38;0.80;;;0.80;;
14849;SDS011;7517;48.400;11.770;2023-04-03T10:35:28;0.60;;;0.60;;
14849;SDS011;7517;48.400;11.770;2023-04-03T10:38:14;1.00;;;0.70;;
14849;SDS011;7517;48.400;11.770;2023-04-03T10:40:52;0.50;;;0.47;;
14849;SDS011;7517;48.400;11.770;2023-04-03T10:43:31;1.10;;;0.70;;
14849;SDS011;7517;48.400;11.770;2023-04-03T10:46:06;1.30;;;0.90;;
14849;SDS011;7517;48.400;11.770;2023-04-03T10:48:53;1.37;;;0.80;;
14849;SDS011;7517;48.400;11.770;2023-04-03T10:51:43;3.07;;;1.00;;
14849;SDS011;7517;48.400;11.770;2023-04-03T10:54:16;2.20;;;1.00;;
14849;SDS011;7517;48.400;11.770;2023-04-03T10:56:51;1.53;;;0.80;;
14849;SDS011;7517;48.400;11.770;2023-04-03T10:59:24;2.70;;;1.00;;
14849;SDS011;7517;48.400;11.770;2023-04-03T11:01:58;0.90;;;0.90;;
14849;SDS011;7517;48.400;11.770;2023-04-03T11:04:34;1.73;;;1.00;;
14849;SDS011;7517;48.400;11.770;2023-04-03T11:07:10;0.77;;;0.70;;
14849;SDS011;7517;48.400;11.770;2023-04-03T11:09:44;1.67;;;0.77;;
14849;SDS011;7517;48.400;11.770;2023-04-03T11:12:17;1.13;;;0.90;;
14849;SDS011;7517;48.400;11.770;2023-04-03T11:14:53;1.13;;;0.80;;
14849;SDS011;7517;48.400;11.770;2023-04-03T11:17:26;0.83;;;0.77;;
14849;SDS011;7517;48.400;11.770;2023-04-03T11:20:04;1.17;;;0.80;;
14849;SDS011;7517;48.400;11.770;2023-04-03T11:22:45;0.73;;;0.60;;
14849;SDS011;7517;48.400;11.770;2023-04-03T11:25:19;1.53;;;0.87;;
14849;SDS011;7517;48.400;11.770;2023-04-03T11:27:51;1.23;;;1.00;;
14849;SDS011;7517;48.400;11.770;2023-04-03T11:30:23;0.93;;;0.70;;
14849;SDS011;7517;48.400;11.770;2023-04-03T11:36:13;0.80;;;0.63;;
14849;SDS011;7517;48.400;11.770;2023-04-03T11:38:54;1.00;;;0.80;;
14849;SDS011;7517;48.400;11.770;2023-04-03T11:41:26;1.00;;;0.70;;
14849;SDS011;7517;48.400;11.770;2023-04-03T11:43:59;1.13;;;1.03;;
14849;SDS011;7517;48.400;11.770;2023-04-03T11:55:49;1.07;;;0.60;;
14849;SDS011;7517;48.400;11.770;2023-04-03T11:58:23;1.73;;;0.70;;
14849;SDS011;7517;48.400;11.770;2023-04-03T12:00:58;0.60;;;0.60;;
14849;SDS011;7517;48.400;11.770;2023-04-03T12:06:42;0.43;;;0.43;;
14849;SDS011;7517;48.400;11.770;2023-04-03T12:15:52;2.70;;;0.70;;
14849;SDS011;7517;48.400;11.770;2023-04-03T12:24:45;1.10;;;1.00;;
14849;SDS011;7517;48.400;11.770;2023-04-03T12:27:19;0.70;;;0.70;;
14849;SDS011;7517;48.400;11.770;2023-04-03T12:30:12;1.43;;;0.60;;
14849;SDS011;7517;48.400;11.770;2023-04-03T12:33:01;1.30;;;0.60;;
14849;SDS011;7517;48.400;11.770;2023-04-03T12:35:54;1.57;;;0.70;;
14849;SDS011;7517;48.400;11.770;2023-04-03T12:38:51;0.83;;;0.60;;
14849;SDS011;7517;48.400;11.770;2023-04-03T12:41:44;0.70;;;0.60;;
14849;SDS011;7517;48.400;11.770;2023-04-03T12:44:38;0.70;;;0.70;;
14849;SDS011;7517;48.400;11.770;2023-04-03T12:47:28;0.77;;;0.70;;
14849;SDS011;7517;48.400;11.770;2023-04-03T12:50:02;1.60;;;0.70;;
14849;SDS011;7517;48.400;11.770;2023-04-03T12:52:44;0.80;;;0.77;;
14849;SDS011;7517;48.400;11.770;2023-04-03T12:55:18;0.70;;;0.70;;
14849;SDS011;7517;48.400;11.770;2023-04-03T12:57:47;0.60;;;0.60;;
14849;SDS011;7517;48.400;11.770;2023-04-03T13:00:19;0.50;;;0.50;;
14849;SDS011;7517;48.400;11.770;2023-04-03T13:02:58;1.03;;;0.90;;
14849;SDS011;7517;48.400;11.770;2023-04-03T13:05:27;1.30;;;0.70;;
14849;SDS011;7517;48.400;11.770;2023-04-03T13:07:58;0.77;;;0.77;;
14849;SDS011;7517;48.400;11.770;2023-04-03T13:10:30;0.70;;;0.70;;
14849;SDS011;7517;48.400;11.770;2023-04-03T13:13:17;1.23;;;0.70;;
14849;SDS011;7517;48.400;11.770;2023-04-03T13:15:45;0.70;;;0.70;;
14849;SDS011;7517;48.400;11.770;2023-04-03T13:18:25;0.70;;;0.60;;
14849;SDS011;7517;48.400;11.770;2023-04-03T13:20:57;0.70;;;0.70;;
14849;SDS011;7517;48.400;11.770;2023-04-03T13:23:32;1.33;;;0.60;;
14849;SDS011;7517;48.400;11.770;2023-04-03T13:26:03;1.43;;;0.60;;
14849;SDS011;7517;48.400;11.770;2023-04-03T13:28:33;0.80;;;0.80;;
14849;SDS011;7517;48.400;11.770;2023-04-03T13:31:04;1.97;;;0.60;;
14849;SDS011;7517;48.400;11.770;2023-04-03T13:33:52;0.40;;;0.40;;
14849;SDS011;7517;48.400;11.770;2023-04-03T13:36:24;0.60;;;0.60;;
14849;SDS011;7517;48.400;11.770;2023-04-03T13:38:58;0.40;;;0.40;;
14849;SDS011;7517;48.400;11.770;2023-04-03T13:41:29;1.00;;;0.67;;
14849;SDS011;7517;48.400;11.770;2023-04-03T13:44:25;0.63;;;0.63;;
14849;SDS011;7517;48.400;11.770;2023-04-03T13:46:59;1.30;;;0.50;;
14849;SDS011;7517;48.400;11.770;2023-04-03T13:49:45;0.93;;;0.60;;
14849;SDS011;7517;48.400;11.770;2023-04-03T13:52:28;0.47;;;0.47;;
14849;SDS011;7517;48.400;11.770;2023-04-03T13:55:02;0.60;;;0.60;;
14849;SDS011;7517;48.400;11.770;2023-04-03T13:57:48;0.60;;;0.53;;
14849;SDS011;7517;48.400;11.770;2023-04-03T14:00:31;0.90;;;0.60;;
14849;SDS011;7517;48.400;11.770;2023-04-03T14:03:11;0.70;;;0.70;;
14849;SDS011;7517;48.400;11.770;2023-04-03T14:05:45;1.23;;;0.63;;
14849;SDS011;7517;48.400;11.770;2023-04-03T14:08:13;0.90;;;0.60;;
14849;SDS011;7517;48.400;11.770;2023-04-03T14:10:41;0.63;;;0.60;;
14849;SDS011;7517;48.400;11.770;2023-04-03T14:13:09;0.97;;;0.60;;
14849;SDS011;7517;48.400;11.770;2023-04-03T14:15:41;0.43;;;0.40;;
14849;SDS011;7517;48.400;11.770;2023-04-03T14:18:10;1.90;;;0.87;;
14849;SDS011;7517;48.400;11.770;2023-04-03T14:20:39;0.50;;;0.50;;
14849;SDS011;7517;48.400;11.770;2023-04-03T14:23:09;0.60;;;0.60;;
14849;SDS011;7517;48.400;11.770;2023-04-03T14:25:37;0.87;;;0.60;;
14849;SDS011;7517;48.400;11.770;2023-04-03T14:28:07;0.40;;;0.40;;
14849;SDS011;7517;48.400;11.770;2023-04-03T14:30:44;2.10;;;0.67;;
14849;SDS011;7517;48.400;11.770;2023-04-03T14:33:13;0.93;;;0.80;;
14849;SDS011;7517;48.400;11.770;2023-04-03T14:35:44;0.87;;;0.67;;
14849;SDS011;7517;48.400;11.770;2023-04-03T14:38:15;0.67;;;0.40;;
14849;SDS011;7517;48.400;11.770;2023-04-03T14:40:50;0.63;;;0.63;;
14849;SDS011;7517;48.400;11.770;2023-04-03T14:43:19;1.50;;;0.63;;
14849;SDS011;7517;48.400;11.770;2023-04-03T14:45:49;0.63;;;0.50;;
14849;SDS011;7517;48.400;11.770;2023-04-03T14:48:18;0.53;;;0.53;;
14849;SDS011;7517;48.400;11.770;2023-04-03T14:50:49;0.63;;;0.63;;
14849;SDS011;7517;48.400;11.770;2023-04-03T14:53:21;1.57;;;0.70;;
14849;SDS011;7517;48.400;11.770;2023-04-03T14:55:50;0.87;;;0.60;;
14849;SDS011;7517;48.400;11.770;2023-04-03T14:58:19;0.93;;;0.70;;
14849;SDS011;7517;48.400;11.770;2023-04-03T15:00:47;0.70;;;0.57;;
14849;SDS011;7517;48.400;11.770;2023-04-03T15:03:15;1.47;;;0.80;;
14849;SDS011;7517;48.400;11.770;2023-04-03T15:05:46;0.50;;;0.43;;
14849;SDS011;7517;48.400;11.770;2023-04-03T15:08:17;1.60;;;0.87;;
14849;SDS011;7517;48.400;11.770;2023-04-03T15:10:49;0.80;;;0.80;;
14849;SDS011;7517;48.400;11.770;2023-04-03T15:13:18;0.80;;;0.80;;
14849;SDS011;7517;48.400;11.770;2023-04-03T15:15:46;1.03;;;0.60;;
14849;SDS011;7517;48.400;11.770;2023-04-03T15:18:17;0.63;;;0.53;;
14849;SDS011;7517;48.400;11.770;2023-04-03T15:20:48;0.73;;;0.50;;
14849;SDS011;7517;48.400;11.770;2023-04-03T15:23:17;1.70;;;0.70;;
14849;SDS011;7517;48.400;11.770;2023-04-03T15:25:52;1.03;;;0.53;;
14849;SDS011;7517;48.400;11.770;2023-04-03T15:28:22;1.17;;;0.60;;
14849;SDS011;7517;48.400;11.770;2023-04-03T15:30:54;0.70;;;0.70;;
14849;SDS011;7517;48.400;11.770;2023-04-03T15:33:22;0.50;;;0.50;;
14849;SDS011;7517;48.400;11.770;2023-04-03T15:35:50;1.20;;;0.80;;
14849;SDS011;7517;48.400;11.770;2023-04-03T15:38:18;0.97;;;0.60;;
14849;SDS011;7517;48.400;11.770;2023-04-03T15:40:45;0.93;;;0.60;;
14849;SDS011;7517;48.400;11.770;2023-04-03T15:43:14;1.30;;;0.80;;
14849;SDS011;7517;48.400;11.770;2023-04-03T15:45:42;0.80;;;0.60;;
14849;SDS011;7517;48.400;11.770;2023-04-03T15:48:11;1.00;;;0.90;;